sensor_id;sensor_type;location;lat;lon;timestamp;temperature;humidity
11824;DHT22;5969;50.780;7.726;2023-04-01T00:01:26;9.10;99.90
11824;DHT22;5969;50.780;7.726;2023-04-01T00:03:52;9.00;99.90
11824;DHT22;5969;50.780;7.726;2023-04-01T00:06:20;8.90;99.90
11824;DHT22;5969;50.780;7.726;2023-04-01T00:08:46;9.00;99.90
11824;DHT22;5969;50.780;7.726;2023-04-01T00:11:14;9.00;99.90
11824;DHT22;5969;50.780;7.726;2023-04-01T00:13:43;9.00;99.90
11824;DHT22;5969;50.780;7.726;2023-04-01T00:16:09;9.00;99.90
11824;DHT22;5969;50.780;7.726;2023-04-01T00:18:37;8.90;99.90
11824;DHT22;5969;50.780;7.726;2023-04-01T00:21:05;8.90;99.90
11824;DHT22;5969;50.780;7.726;2023-04-01T00:23:32;8.80;99.90
11824;DHT22;5969;50.780;7.726;2023-04-01T00:25:59;8.90;99.90
11824;DHT22;5969;50.780;7.726;2023-04-01T00:28:27;8.80;99.90
11824;DHT22;5969;50.780;7.726;2023-04-01T00:30:55;8.80;99.90
11824;DHT22;5969;50.780;7.726;2023-04-01T00:33:21;8.70;99.90
11824;DHT22;5969;50.780;7.726;2023-04-01T00:35:48;8.80;99.90
11824;DHT22;5969;50.780;7.726;2023-04-01T00:38:15;8.70;99.90
11824;DHT22;5969;50.780;7.726;2023-04-01T00:40:46;8.70;99.90
11824;DHT22;5969;50.780;7.726;2023-04-01T00:43:14;8.60;99.90
11824;DHT22;5969;50.780;7.726;2023-04-01T00:45:44;8.70;99.90
11824;DHT22;5969;50.780;7.726;2023-04-01T00:48:16;8.60;99.90
11824;DHT22;5969;50.780;7.726;2023-04-01T00:50:46;8.70;99.90
11824;DHT22;5969;50.780;7.726;2023-04-01T00:53:15;8.60;99.90
11824;DHT22;5969;50.780;7.726;2023-04-01T00:55:48;8.60;99.90
11824;DHT22;5969;50.780;7.726;2023-04-01T00:58:18;8.60;99.90
11824;DHT22;5969;50.780;7.726;2023-04-01T03:54:23;8.10;99.90
11824;DHT22;5969;50.780;7.726;2023-04-01T03:57:20;8.10;99.90
11824;DHT22;5969;50.780;7.726;2023-04-01T04:00:10;8.10;99.90
11824;DHT22;5969;50.780;7.726;2023-04-01T04:02:43;8.10;99.90
11824;DHT22;5969;50.780;7.726;2023-04-01T04:05:26;8.20;99.90
11824;DHT22;5969;50.780;7.726;2023-04-01T04:08:11;8.10;99.90
11824;DHT22;5969;50.780;7.726;2023-04-01T04:11:04;8.10;99.90
11824;DHT22;5969;50.780;7.726;2023-04-01T04:13:38;8.10;99.90
11824;DHT22;5969;50.780;7.726;2023-04-01T04:16:19;8.10;99.90
11824;DHT22;5969;50.780;7.726;2023-04-01T04:19:09;8.10;99.90
11824;DHT22;5969;50.780;7.726;2023-04-01T04:21:49;8.00;99.90
11824;DHT22;5969;50.780;7.726;2023-04-01T04:24:33;8.10;99.90
11824;DHT22;5969;50.780;7.726;2023-04-01T04:27:21;8.00;99.90
11824;DHT22;5969;50.780;7.726;2023-04-01T04:30:02;8.00;99.90
11824;DHT22;5969;50.780;7.726;2023-04-01T04:32:59;8.00;99.90
11824;DHT22;5969;50.780;7.726;2023-04-01T04:36:03;8.00;99.90
11824;DHT22;5969;50.780;7.726;2023-04-01T04:38:45;8.00;99.90
11824;DHT22;5969;50.780;7.726;2023-04-01T04:41:18;8.00;99.90
11824;DHT22;5969;50.780;7.726;2023-04-01T04:43:55;8.00;99.90
11824;DHT22;5969;50.780;7.726;2023-04-01T04:46:32;7.90;99.90
11824;DHT22;5969;50.780;7.726;2023-04-01T04:49:07;8.00;99.90
11824;DHT22;5969;50.780;7.726;2023-04-01T04:51:55;8.00;99.90
11824;DHT22;5969;50.780;7.726;2023-04-01T04:54:25;8.00;99.90
11824;DHT22;5969;50.780;7.726;2023-04-01T04:56:57;8.00;99.90
11824;DHT22;5969;50.780;7.726;2023-04-01T04:59:29;8.00;99.90
11824;DHT22;5969;50.780;7.726;2023-04-01T05:02:00;7.90;99.90
11824;DHT22;5969;50.780;7.726;2023-04-01T05:04:43;8.00;99.90
11824;DHT22;5969;50.780;7.726;2023-04-01T05:07:24;8.00;99.90
11824;DHT22;5969;50.780;7.726;2023-04-01T05:09:56;8.00;99.90
11824;DHT22;5969;50.780;7.726;2023-04-01T05:12:49;8.00;99.90
11824;DHT22;5969;50.780;7.726;2023-04-01T05:15:30;8.00;99.90
11824;DHT22;5969;50.780;7.726;2023-04-01T05:18:06;8.00;99.90
11824;DHT22;5969;50.780;7.726;2023-04-01T05:20:59;8.00;99.90
11824;DHT22;5969;50.780;7.726;2023-04-01T05:23:42;8.10;99.90
11824;DHT22;5969;50.780;7.726;2023-04-01T05:26:17;8.10;99.90
11824;DHT22;5969;50.780;7.726;2023-04-01T05:28:48;7.90;99.90
11824;DHT22;5969;50.780;7.726;2023-04-01T05:31:34;8.00;99.90
11824;DHT22;5969;50.780;7.726;2023-04-01T05:34:14;8.00;99.90
11824;DHT22;5969;50.780;7.726;2023-04-01T05:36:46;8.00;99.90
11824;DHT22;5969;50.780;7.726;2023-04-01T05:39:20;8.10;99.90
11824;DHT22;5969;50.780;7.726;2023-04-01T05:42:37;8.10;99.90
11824;DHT22;5969;50.780;7.726;2023-04-01T05:44:48;8.00;99.90
11824;DHT22;5969;50.780;7.726;2023-04-01T05:47:46;8.00;99.90
11824;DHT22;5969;50.780;7.726;2023-04-01T05:50:18;8.00;99.90
11824;DHT22;5969;50.780;7.726;2023-04-01T05:53:03;8.10;99.90
11824;DHT22;5969;50.780;7.726;2023-04-01T05:55:41;7.90;99.90
11824;DHT22;5969;50.780;7.726;2023-04-01T05:58:12;8.00;99.90
11824;DHT22;5969;50.780;7.726;2023-04-01T06:00:44;7.90;99.90
11824;DHT22;5969;50.780;7.726;2023-04-01T06:03:21;8.00;99.90
11824;DHT22;5969;50.780;7.726;2023-04-01T06:09:35;8.10;99.90
11824;DHT22;5969;50.780;7.726;2023-04-01T06:12:42;8.10;99.90
11824;DHT22;5969;50.780;7.726;2023-04-01T06:15:39;8.10;99.90
11824;DHT22;5969;50.780;7.726;2023-04-01T06:21:47;8.00;99.90
11824;DHT22;5969;50.780;7.726;2023-04-01T06:24:50;8.10;99.90
11824;DHT22;5969;50.780;7.726;2023-04-01T06:27:54;8.10;99.90
11824;DHT22;5969;50.780;7.726;2023-04-01T06:30:43;8.10;99.90
11824;DHT22;5969;50.780;7.726;2023-04-01T06:33:38;8.10;99.90
11824;DHT22;5969;50.780;7.726;2023-04-01T06:39:32;8.20;99.90
11824;DHT22;5969;50.780;7.726;2023-04-01T06:42:33;8.20;99.90
11824;DHT22;5969;50.780;7.726;2023-04-01T06:45:46;8.20;99.90
11824;DHT22;5969;50.780;7.726;2023-04-01T06:48:41;8.10;99.90
11824;DHT22;5969;50.780;7.726;2023-04-01T06:51:38;8.10;99.90
11824;DHT22;5969;50.780;7.726;2023-04-01T06:54:20;8.20;99.90
11824;DHT22;5969;50.780;7.726;2023-04-01T06:56:53;8.20;99.90
11824;DHT22;5969;50.780;7.726;2023-04-01T06:59:25;8.20;99.90
11824;DHT22;5969;50.780;7.726;2023-04-01T07:01:57;8.20;99.90
11824;DHT22;5969;50.780;7.726;2023-04-01T07:04:30;8.30;99.90
11824;DHT22;5969;50.780;7.726;2023-04-01T07:07:00;8.30;99.90
11824;DHT22;5969;50.780;7.726;2023-04-01T07:09:31;8.30;99.90
11824;DHT22;5969;50.780;7.726;2023-04-01T07:12:06;8.40;99.90
11824;DHT22;5969;50.780;7.726;2023-04-01T07:14:42;8.50;99.90
11824;DHT22;5969;50.780;7.726;2023-04-01T07:17:15;8.50;99.90
11824;DHT22;5969;50.780;7.726;2023-04-01T07:19:58;8.60;99.90
11824;DHT22;5969;50.780;7.726;2023-04-01T07:22:32;8.50;99.90
11824;DHT22;5969;50.780;7.726;2023-04-01T07:25:07;8.40;99.90
11824;DHT22;5969;50.780;7.726;2023-04-01T07:27:38;8.50;99.90
11824;DHT22;5969;50.780;7.726;2023-04-01T07:30:14;8.50;99.90
11824;DHT22;5969;50.780;7.726;2023-04-01T07:32:48;8.50;99.90
11824;DHT22;5969;50.780;7.726;2023-04-01T07:35:52;8.50;99.90
11824;DHT22;5969;50.780;7.726;2023-04-01T07:38:52;8.50;99.90
11824;DHT22;5969;50.780;7.726;2023-04-01T07:41:50;8.50;99.90
11824;DHT22;5969;50.780;7.726;2023-04-01T07:44:37;8.50;99.90
11824;DHT22;5969;50.780;7.726;2023-04-01T07:50:10;8.60;99.90
11824;DHT22;5969;50.780;7.726;2023-04-01T07:52:50;8.60;99.90
11824;DHT22;5969;50.780;7.726;2023-04-01T07:55:24;8.70;99.90
11824;DHT22;5969;50.780;7.726;2023-04-01T07:58:00;8.70;99.90
11824;DHT22;5969;50.780;7.726;2023-04-01T08:00:40;8.80;99.90
11824;DHT22;5969;50.780;7.726;2023-04-01T08:03:27;8.90;99.90
11824;DHT22;5969;50.780;7.726;2023-04-01T08:06:00;8.90;99.90
11824;DHT22;5969;50.780;7.726;2023-04-01T08:08:44;8.80;99.90
11824;DHT22;5969;50.780;7.726;2023-04-01T08:11:41;8.90;99.90
11824;DHT22;5969;50.780;7.726;2023-04-01T08:14:18;9.10;99.90
11824;DHT22;5969;50.780;7.726;2023-04-01T08:16:52;9.20;99.90
11824;DHT22;5969;50.780;7.726;2023-04-01T08:19:39;9.10;99.90
11824;DHT22;5969;50.780;7.726;2023-04-01T08:22:27;9.30;99.90
11824;DHT22;5969;50.780;7.726;2023-04-01T08:25:04;9.30;99.90
11824;DHT22;5969;50.780;7.726;2023-04-01T08:27:37;9.20;99.90
11824;DHT22;5969;50.780;7.726;2023-04-01T08:30:20;9.30;99.90
11824;DHT22;5969;50.780;7.726;2023-04-01T08:33:00;9.30;99.90
11824;DHT22;5969;50.780;7.726;2023-04-01T08:35:37;9.30;99.90
11824;DHT22;5969;50.780;7.726;2023-04-01T08:38:10;9.50;99.90
11824;DHT22;5969;50.780;7.726;2023-04-01T08:40:59;9.40;99.90
11824;DHT22;5969;50.780;7.726;2023-04-01T08:44:03;9.30;99.90
11824;DHT22;5969;50.780;7.726;2023-04-01T08:47:14;9.20;99.90
11824;DHT22;5969;50.780;7.726;2023-04-01T08:52:44;9.20;99.90
11824;DHT22;5969;50.780;7.726;2023-04-01T08:55:37;9.40;99.90
11824;DHT22;5969;50.780;7.726;2023-04-01T08:58:30;9.30;99.90
11824;DHT22;5969;50.780;7.726;2023-04-01T09:01:15;9.30;99.90
11824;DHT22;5969;50.780;7.726;2023-04-01T09:04:04;9.30;99.90
11824;DHT22;5969;50.780;7.726;2023-04-01T09:13:46;9.50;99.90
11824;DHT22;5969;50.780;7.726;2023-04-01T09:25:56;9.40;99.90
11824;DHT22;5969;50.780;7.726;2023-04-01T09:28:28;9.30;99.90
11824;DHT22;5969;50.780;7.726;2023-04-01T09:31:13;9.50;99.90
11824;DHT22;5969;50.780;7.726;2023-04-01T09:34:07;9.50;99.90
11824;DHT22;5969;50.780;7.726;2023-04-01T09:36:43;9.60;99.90
11824;DHT22;5969;50.780;7.726;2023-04-01T09:39:22;9.60;99.90
11824;DHT22;5969;50.780;7.726;2023-04-01T09:42:03;9.50;99.90
11824;DHT22;5969;50.780;7.726;2023-04-01T09:44:34;9.40;99.90
11824;DHT22;5969;50.780;7.726;2023-04-01T09:47:21;9.50;99.90
11824;DHT22;5969;50.780;7.726;2023-04-01T09:50:06;9.60;99.90
11824;DHT22;5969;50.780;7.726;2023-04-01T09:52:46;9.50;99.90
11824;DHT22;5969;50.780;7.726;2023-04-01T09:55:31;9.50;99.90
11824;DHT22;5969;50.780;7.726;2023-04-01T09:58:51;9.50;99.90
11824;DHT22;5969;50.780;7.726;2023-04-01T10:01:42;9.60;99.90
11824;DHT22;5969;50.780;7.726;2023-04-01T10:16:31;9.60;99.90
11824;DHT22;5969;50.780;7.726;2023-04-01T10:19:22;9.50;99.90
11824;DHT22;5969;50.780;7.726;2023-04-01T10:22:17;9.60;99.90
11824;DHT22;5969;50.780;7.726;2023-04-01T10:25:16;9.50;99.90
11824;DHT22;5969;50.780;7.726;2023-04-01T10:27:56;9.40;99.90
11824;DHT22;5969;50.780;7.726;2023-04-01T10:30:45;9.40;99.90
11824;DHT22;5969;50.780;7.726;2023-04-01T10:36:52;9.40;99.90
11824;DHT22;5969;50.780;7.726;2023-04-01T10:42:39;9.50;99.90
11824;DHT22;5969;50.780;7.726;2023-04-01T10:48:35;9.30;99.90
11824;DHT22;5969;50.780;7.726;2023-04-01T10:51:17;9.30;99.90
11824;DHT22;5969;50.780;7.726;2023-04-01T10:54:18;9.40;99.90
11824;DHT22;5969;50.780;7.726;2023-04-01T10:56:54;9.40;99.90
11824;DHT22;5969;50.780;7.726;2023-04-01T10:59:53;9.30;99.90
11824;DHT22;5969;50.780;7.726;2023-04-01T11:03:06;9.30;99.90
11824;DHT22;5969;50.780;7.726;2023-04-01T11:09:27;9.30;99.90
11824;DHT22;5969;50.780;7.726;2023-04-01T11:15:37;9.30;99.90
11824;DHT22;5969;50.780;7.726;2023-04-01T11:18:38;9.30;99.90
11824;DHT22;5969;50.780;7.726;2023-04-01T11:21:43;9.40;99.90
11824;DHT22;5969;50.780;7.726;2023-04-01T11:24:48;9.60;99.90
11824;DHT22;5969;50.780;7.726;2023-04-01T11:27:30;9.50;99.90
11824;DHT22;5969;50.780;7.726;2023-04-01T11:30:16;9.40;99.90
11824;DHT22;5969;50.780;7.726;2023-04-01T11:33:01;9.50;99.90
11824;DHT22;5969;50.780;7.726;2023-04-01T11:35:54;9.50;99.90
11824;DHT22;5969;50.780;7.726;2023-04-01T11:38:31;9.60;99.90
11824;DHT22;5969;50.780;7.726;2023-04-01T11:41:13;9.70;99.90
11824;DHT22;5969;50.780;7.726;2023-04-01T11:43:52;9.60;99.90
11824;DHT22;5969;50.780;7.726;2023-04-01T11:46:27;9.70;99.90
11824;DHT22;5969;50.780;7.726;2023-04-01T11:49:05;9.70;99.90
11824;DHT22;5969;50.780;7.726;2023-04-01T11:52:01;9.70;99.90
11824;DHT22;5969;50.780;7.726;2023-04-01T11:54:43;9.70;99.90
11824;DHT22;5969;50.780;7.726;2023-04-01T11:57:34;9.60;99.90
11824;DHT22;5969;50.780;7.726;2023-04-01T12:00:31;9.60;99.90
11824;DHT22;5969;50.780;7.726;2023-04-01T12:03:16;9.60;99.90
11824;DHT22;5969;50.780;7.726;2023-04-01T12:05:51;9.80;99.90
11824;DHT22;5969;50.780;7.726;2023-04-01T12:08:27;9.90;99.90
11824;DHT22;5969;50.780;7.726;2023-04-01T12:11:02;9.80;99.90
11824;DHT22;5969;50.780;7.726;2023-04-01T12:13:39;9.80;99.90
11824;DHT22;5969;50.780;7.726;2023-04-01T12:16:37;9.80;99.90
11824;DHT22;5969;50.780;7.726;2023-04-01T12:19:11;9.80;99.90
11824;DHT22;5969;50.780;7.726;2023-04-01T12:21:45;10.10;99.90
11824;DHT22;5969;50.780;7.726;2023-04-01T12:24:36;10.50;99.90
11824;DHT22;5969;50.780;7.726;2023-04-01T12:27:29;10.70;99.90
11824;DHT22;5969;50.780;7.726;2023-04-01T12:33:04;10.50;99.90
11824;DHT22;5969;50.780;7.726;2023-04-01T12:35:47;10.40;99.90
11824;DHT22;5969;50.780;7.726;2023-04-01T12:38:28;10.60;99.90
11824;DHT22;5969;50.780;7.726;2023-04-01T12:41:07;10.90;99.90
11824;DHT22;5969;50.780;7.726;2023-04-01T12:43:56;10.80;99.90
11824;DHT22;5969;50.780;7.726;2023-04-01T12:46:31;10.60;99.90
11824;DHT22;5969;50.780;7.726;2023-04-01T12:49:21;10.70;99.90
11824;DHT22;5969;50.780;7.726;2023-04-01T12:52:06;10.80;99.90
11824;DHT22;5969;50.780;7.726;2023-04-01T12:57:47;10.80;99.90
11824;DHT22;5969;50.780;7.726;2023-04-01T13:00:35;10.70;99.90
11824;DHT22;5969;50.780;7.726;2023-04-01T13:03:20;10.60;99.90
11824;DHT22;5969;50.780;7.726;2023-04-01T13:06:19;10.70;99.90
11824;DHT22;5969;50.780;7.726;2023-04-01T13:08:52;10.80;99.90
11824;DHT22;5969;50.780;7.726;2023-04-01T13:11:28;10.50;99.90
11824;DHT22;5969;50.780;7.726;2023-04-01T13:17:20;10.80;99.90
11824;DHT22;5969;50.780;7.726;2023-04-01T13:19:56;10.90;99.90
11824;DHT22;5969;50.780;7.726;2023-04-01T13:22:28;11.00;99.90
11824;DHT22;5969;50.780;7.726;2023-04-01T13:25:01;11.30;99.90
11824;DHT22;5969;50.780;7.726;2023-04-01T13:27:35;10.60;99.90
11824;DHT22;5969;50.780;7.726;2023-04-01T13:30:20;10.40;99.90
11824;DHT22;5969;50.780;7.726;2023-04-01T13:32:55;10.50;99.90
11824;DHT22;5969;50.780;7.726;2023-04-01T13:35:35;10.70;99.90
11824;DHT22;5969;50.780;7.726;2023-04-01T13:38:30;10.70;99.90
11824;DHT22;5969;50.780;7.726;2023-04-01T13:41:03;11.00;99.90
11824;DHT22;5969;50.780;7.726;2023-04-01T13:43:35;10.70;99.90
11824;DHT22;5969;50.780;7.726;2023-04-01T13:49:32;10.60;99.90
11824;DHT22;5969;50.780;7.726;2023-04-01T13:52:20;10.50;99.90
11824;DHT22;5969;50.780;7.726;2023-04-01T13:55:14;10.60;99.90
11824;DHT22;5969;50.780;7.726;2023-04-01T13:58:02;10.70;99.90
11824;DHT22;5969;50.780;7.726;2023-04-01T14:00:45;10.50;99.90
11824;DHT22;5969;50.780;7.726;2023-04-01T14:03:27;10.50;99.90
11824;DHT22;5969;50.780;7.726;2023-04-01T14:06:19;10.70;99.90
11824;DHT22;5969;50.780;7.726;2023-04-01T14:09:02;10.80;99.90
11824;DHT22;5969;50.780;7.726;2023-04-01T14:11:41;10.60;99.90
11824;DHT22;5969;50.780;7.726;2023-04-01T14:14:20;10.60;99.90
11824;DHT22;5969;50.780;7.726;2023-04-01T14:17:08;10.90;99.90
11824;DHT22;5969;50.780;7.726;2023-04-01T14:19:58;10.70;99.90
11824;DHT22;5969;50.780;7.726;2023-04-01T14:22:33;10.50;99.90
11824;DHT22;5969;50.780;7.726;2023-04-01T14:25:30;10.40;99.90
11824;DHT22;5969;50.780;7.726;2023-04-01T14:28:12;10.40;99.90
11824;DHT22;5969;50.780;7.726;2023-04-01T14:30:55;10.60;99.90
11824;DHT22;5969;50.780;7.726;2023-04-01T14:33:33;10.40;99.90
11824;DHT22;5969;50.780;7.726;2023-04-01T14:39:00;10.40;99.90
11824;DHT22;5969;50.780;7.726;2023-04-01T14:41:42;10.40;99.90
11824;DHT22;5969;50.780;7.726;2023-04-01T14:44:30;10.60;99.90
11824;DHT22;5969;50.780;7.726;2023-04-01T14:47:24;10.60;99.90
11824;DHT22;5969;50.780;7.726;2023-04-01T14:50:03;10.60;99.90
11824;DHT22;5969;50.780;7.726;2023-04-01T14:52:32;10.60;99.90
11824;DHT22;5969;50.780;7.726;2023-04-01T14:55:01;10.40;99.90
11824;DHT22;5969;50.780;7.726;2023-04-01T14:57:32;10.40;99.90
11824;DHT22;5969;50.780;7.726;2023-04-01T15:00:12;10.30;99.90
11824;DHT22;5969;50.780;7.726;2023-04-01T15:02:50;10.20;99.90
11824;DHT22;5969;50.780;7.726;2023-04-01T15:05:29;10.00;99.90
11824;DHT22;5969;50.780;7.726;2023-04-01T15:08:11;10.00;99.90
11824;DHT22;5969;50.780;7.726;2023-04-01T15:11:14;10.20;99.90
11824;DHT22;5969;50.780;7.726;2023-04-01T15:14:09;10.30;99.90
11824;DHT22;5969;50.780;7.726;2023-04-01T15:16:44;10.20;99.90
11824;DHT22;5969;50.780;7.726;2023-04-01T15:19:21;10.30;99.90
11824;DHT22;5969;50.780;7.726;2023-04-01T15:22:26;10.30;99.90
11824;DHT22;5969;50.780;7.726;2023-04-01T15:25:06;10.20;99.90
11824;DHT22;5969;50.780;7.726;2023-04-01T15:27:39;10.10;99.90
11824;DHT22;5969;50.780;7.726;2023-04-01T15:30:21;10.10;99.90
11824;DHT22;5969;50.780;7.726;2023-04-01T15:33:07;10.10;99.90
11824;DHT22;5969;50.780;7.726;2023-04-01T15:35:46;10.00;99.90
11824;DHT22;5969;50.780;7.726;2023-04-01T15:38:25;10.10;99.90
11824;DHT22;5969;50.780;7.726;2023-04-01T15:41:02;9.90;99.90
11824;DHT22;5969;50.780;7.726;2023-04-01T15:43:40;9.90;99.90
11824;DHT22;5969;50.780;7.726;2023-04-01T15:46:36;9.90;99.90
11824;DHT22;5969;50.780;7.726;2023-04-01T15:49:15;10.00;99.90
11824;DHT22;5969;50.780;7.726;2023-04-01T15:51:58;9.90;99.90
11824;DHT22;5969;50.780;7.726;2023-04-01T15:54:53;10.00;99.90
11824;DHT22;5969;50.780;7.726;2023-04-01T15:57:28;9.80;99.90
11824;DHT22;5969;50.780;7.726;2023-04-01T16:00:10;9.80;99.90
11824;DHT22;5969;50.780;7.726;2023-04-01T16:02:45;10.00;99.90
11824;DHT22;5969;50.780;7.726;2023-04-01T16:05:25;10.10;99.90
11824;DHT22;5969;50.780;7.726;2023-04-01T16:08:02;10.20;99.90
11824;DHT22;5969;50.780;7.726;2023-04-01T16:11:08;10.10;99.90
11824;DHT22;5969;50.780;7.726;2023-04-01T16:13:51;10.00;99.90
11824;DHT22;5969;50.780;7.726;2023-04-01T16:16:29;10.10;99.90
11824;DHT22;5969;50.780;7.726;2023-04-01T16:19:16;10.10;99.90
11824;DHT22;5969;50.780;7.726;2023-04-01T16:21:49;10.10;99.90
11824;DHT22;5969;50.780;7.726;2023-04-01T16:24:22;9.90;99.90
11824;DHT22;5969;50.780;7.726;2023-04-01T16:26:54;9.90;99.90
11824;DHT22;5969;50.780;7.726;2023-04-01T16:29:30;9.80;99.90
11824;DHT22;5969;50.780;7.726;2023-04-01T16:32:17;9.80;99.90
11824;DHT22;5969;50.780;7.726;2023-04-01T16:34:57;9.70;99.90
11824;DHT22;5969;50.780;7.726;2023-04-01T16:37:32;9.80;99.90
11824;DHT22;5969;50.780;7.726;2023-04-01T16:40:11;10.00;99.90
11824;DHT22;5969;50.780;7.726;2023-04-01T16:42:47;10.00;99.90
11824;DHT22;5969;50.780;7.726;2023-04-01T16:45:23;10.00;99.90
11824;DHT22;5969;50.780;7.726;2023-04-01T16:47:55;9.90;99.90
11824;DHT22;5969;50.780;7.726;2023-04-01T16:50:26;9.90;99.90
11824;DHT22;5969;50.780;7.726;2023-04-01T16:52:59;9.70;99.90
11824;DHT22;5969;50.780;7.726;2023-04-01T16:55:35;9.80;99.90
11824;DHT22;5969;50.780;7.726;2023-04-01T16:58:07;9.80;99.90
11824;DHT22;5969;50.780;7.726;2023-04-01T17:00:38;9.60;99.90
11824;DHT22;5969;50.780;7.726;2023-04-01T17:03:12;9.40;99.90
11824;DHT22;5969;50.780;7.726;2023-04-01T17:05:52;9.50;99.90
11824;DHT22;5969;50.780;7.726;2023-04-01T17:08:36;9.40;99.90
11824;DHT22;5969;50.780;7.726;2023-04-01T17:11:11;9.40;99.90
11824;DHT22;5969;50.780;7.726;2023-04-01T17:13:46;9.40;99.90
11824;DHT22;5969;50.780;7.726;2023-04-01T17:16:32;9.50;99.90
11824;DHT22;5969;50.780;7.726;2023-04-01T17:19:14;9.50;99.90
11824;DHT22;5969;50.780;7.726;2023-04-01T17:21:55;9.50;99.90
11824;DHT22;5969;50.780;7.726;2023-04-01T17:24:37;9.40;99.90
11824;DHT22;5969;50.780;7.726;2023-04-01T17:27:17;9.50;99.90
11824;DHT22;5969;50.780;7.726;2023-04-01T17:30:13;9.40;99.90
11824;DHT22;5969;50.780;7.726;2023-04-01T17:32:53;9.40;99.90
11824;DHT22;5969;50.780;7.726;2023-04-01T17:35:26;9.40;99.90
11824;DHT22;5969;50.780;7.726;2023-04-01T17:38:08;9.40;99.90
11824;DHT22;5969;50.780;7.726;2023-04-01T17:40:49;9.40;99.90
11824;DHT22;5969;50.780;7.726;2023-04-01T17:43:27;9.30;99.90
11824;DHT22;5969;50.780;7.726;2023-04-01T17:46:04;9.30;99.90
11824;DHT22;5969;50.780;7.726;2023-04-01T17:48:41;9.30;99.90
11824;DHT22;5969;50.780;7.726;2023-04-01T17:51:19;9.30;99.90
11824;DHT22;5969;50.780;7.726;2023-04-01T17:53:56;9.20;99.90
11824;DHT22;5969;50.780;7.726;2023-04-01T17:56:36;9.20;99.90
11824;DHT22;5969;50.780;7.726;2023-04-01T17:59:13;9.20;99.90
11824;DHT22;5969;50.780;7.726;2023-04-01T18:01:52;9.20;99.90
11824;DHT22;5969;50.780;7.726;2023-04-01T18:07:45;9.20;99.90
11824;DHT22;5969;50.780;7.726;2023-04-01T18:10:29;9.10;99.90
11824;DHT22;5969;50.780;7.726;2023-04-01T18:13:19;9.10;99.90
11824;DHT22;5969;50.780;7.726;2023-04-01T18:15:56;9.00;99.90
11824;DHT22;5969;50.780;7.726;2023-04-01T18:18:47;8.90;99.90
11824;DHT22;5969;50.780;7.726;2023-04-01T18:21:20;8.90;99.90
11824;DHT22;5969;50.780;7.726;2023-04-01T18:23:53;8.90;99.90
11824;DHT22;5969;50.780;7.726;2023-04-01T18:26:27;8.80;99.90
11824;DHT22;5969;50.780;7.726;2023-04-01T18:28:58;8.80;99.90
11824;DHT22;5969;50.780;7.726;2023-04-01T18:31:32;8.80;99.90
11824;DHT22;5969;50.780;7.726;2023-04-01T18:34:06;8.80;99.90
11824;DHT22;5969;50.780;7.726;2023-04-01T18:36:40;8.80;99.90
11824;DHT22;5969;50.780;7.726;2023-04-01T18:39:13;8.80;99.90
11824;DHT22;5969;50.780;7.726;2023-04-01T18:41:51;8.80;99.90
11824;DHT22;5969;50.780;7.726;2023-04-01T18:44:29;8.80;99.90
11824;DHT22;5969;50.780;7.726;2023-04-01T18:47:05;8.80;99.90
11824;DHT22;5969;50.780;7.726;2023-04-01T18:49:41;8.80;99.90
11824;DHT22;5969;50.780;7.726;2023-04-01T18:52:15;8.80;99.90
11824;DHT22;5969;50.780;7.726;2023-04-01T18:54:47;8.80;99.90
11824;DHT22;5969;50.780;7.726;2023-04-01T18:57:18;8.80;99.90
11824;DHT22;5969;50.780;7.726;2023-04-01T18:59:50;8.70;99.90
11824;DHT22;5969;50.780;7.726;2023-04-01T19:02:25;8.70;99.90
11824;DHT22;5969;50.780;7.726;2023-04-01T19:05:02;8.80;99.90
11824;DHT22;5969;50.780;7.726;2023-04-01T19:07:43;8.70;99.90
11824;DHT22;5969;50.780;7.726;2023-04-01T19:10:17;8.60;99.90
11824;DHT22;5969;50.780;7.726;2023-04-01T19:13:01;8.60;99.90
11824;DHT22;5969;50.780;7.726;2023-04-01T19:15:34;8.60;99.90
11824;DHT22;5969;50.780;7.726;2023-04-01T19:18:35;8.60;99.90
11824;DHT22;5969;50.780;7.726;2023-04-01T19:21:10;8.60;99.90
11824;DHT22;5969;50.780;7.726;2023-04-01T19:24:10;8.50;99.90
11824;DHT22;5969;50.780;7.726;2023-04-01T19:26:46;8.50;99.90
11824;DHT22;5969;50.780;7.726;2023-04-01T19:29:26;8.40;99.90
11824;DHT22;5969;50.780;7.726;2023-04-01T19:32:05;8.40;99.90
11824;DHT22;5969;50.780;7.726;2023-04-01T19:34:42;8.40;99.90
11824;DHT22;5969;50.780;7.726;2023-04-01T19:37:22;8.40;99.90
11824;DHT22;5969;50.780;7.726;2023-04-01T19:39:57;8.40;99.90
11824;DHT22;5969;50.780;7.726;2023-04-01T19:42:32;8.40;99.90
11824;DHT22;5969;50.780;7.726;2023-04-01T19:45:14;8.40;99.90
11824;DHT22;5969;50.780;7.726;2023-04-01T19:47:57;8.40;99.90
11824;DHT22;5969;50.780;7.726;2023-04-01T19:50:31;8.40;99.90
11824;DHT22;5969;50.780;7.726;2023-04-01T19:53:06;8.50;99.90
11824;DHT22;5969;50.780;7.726;2023-04-01T19:55:39;8.50;99.90
11824;DHT22;5969;50.780;7.726;2023-04-01T19:58:14;8.50;99.90
11824;DHT22;5969;50.780;7.726;2023-04-01T20:00:48;8.50;99.90
11824;DHT22;5969;50.780;7.726;2023-04-01T20:03:25;8.50;99.90
11824;DHT22;5969;50.780;7.726;2023-04-01T20:06:06;8.40;99.90
11824;DHT22;5969;50.780;7.726;2023-04-01T20:08:39;8.40;99.90
11824;DHT22;5969;50.780;7.726;2023-04-01T20:11:17;8.40;99.90
11824;DHT22;5969;50.780;7.726;2023-04-01T20:13:53;8.40;99.90
11824;DHT22;5969;50.780;7.726;2023-04-01T20:16:46;8.50;99.90
11824;DHT22;5969;50.780;7.726;2023-04-01T20:19:24;8.50;99.90
11824;DHT22;5969;50.780;7.726;2023-04-01T20:21:57;8.50;99.90
11824;DHT22;5969;50.780;7.726;2023-04-01T20:24:30;8.50;99.90
11824;DHT22;5969;50.780;7.726;2023-04-01T20:27:03;8.50;99.90
11824;DHT22;5969;50.780;7.726;2023-04-01T20:29:56;8.30;99.90
11824;DHT22;5969;50.780;7.726;2023-04-01T20:32:40;8.30;99.90
11824;DHT22;5969;50.780;7.726;2023-04-01T20:35:25;8.30;99.90
11824;DHT22;5969;50.780;7.726;2023-04-01T20:38:11;8.30;99.90
11824;DHT22;5969;50.780;7.726;2023-04-01T20:40:44;8.30;99.90
11824;DHT22;5969;50.780;7.726;2023-04-01T20:43:53;8.20;99.90
11824;DHT22;5969;50.780;7.726;2023-04-01T20:46:28;8.30;99.90
11824;DHT22;5969;50.780;7.726;2023-04-01T20:49:28;8.30;99.90
11824;DHT22;5969;50.780;7.726;2023-04-01T20:52:02;8.30;99.90
11824;DHT22;5969;50.780;7.726;2023-04-01T20:54:47;8.40;99.90
11824;DHT22;5969;50.780;7.726;2023-04-01T20:57:20;8.40;99.90
11824;DHT22;5969;50.780;7.726;2023-04-01T21:00:11;8.40;99.90
11824;DHT22;5969;50.780;7.726;2023-04-01T21:02:57;8.30;99.90
11824;DHT22;5969;50.780;7.726;2023-04-01T21:05:55;8.30;99.90
11824;DHT22;5969;50.780;7.726;2023-04-01T21:08:30;8.30;99.90
11824;DHT22;5969;50.780;7.726;2023-04-01T21:11:04;8.30;99.90
11824;DHT22;5969;50.780;7.726;2023-04-01T21:13:51;8.30;99.90
11824;DHT22;5969;50.780;7.726;2023-04-01T21:16:35;8.30;99.90
11824;DHT22;5969;50.780;7.726;2023-04-01T21:19:22;8.40;99.90
11824;DHT22;5969;50.780;7.726;2023-04-01T21:22:08;8.50;99.90
11824;DHT22;5969;50.780;7.726;2023-04-01T21:28:02;8.40;99.90
11824;DHT22;5969;50.780;7.726;2023-04-01T21:30:40;8.40;99.90
11824;DHT22;5969;50.780;7.726;2023-04-01T21:33:34;8.30;99.90
11824;DHT22;5969;50.780;7.726;2023-04-01T21:36:13;8.30;99.90
11824;DHT22;5969;50.780;7.726;2023-04-01T21:38:53;8.30;99.90
11824;DHT22;5969;50.780;7.726;2023-04-01T21:41:50;8.40;99.90
11824;DHT22;5969;50.780;7.726;2023-04-01T21:50:41;8.50;99.90